sensor_id;sensor_type;location;lat;lon;timestamp;P1;durP1;ratioP1;P2;durP2;ratioP2
75718;SDS011;64340;48.534;-3.036;2024-01-30T00:01:53;2.65;;;0.90;;
75718;SDS011;64340;48.534;-3.036;2024-01-30T00:04:19;2.17;;;0.80;;
75718;SDS011;64340;48.534;-3.036;2024-01-30T00:06:45;2.55;;;0.70;;
75718;SDS011;64340;48.534;-3.036;2024-01-30T00:09:10;2.30;;;1.20;;
75718;SDS011;64340;48.534;-3.036;2024-01-30T00:11:39;2.72;;;0.95;;
75718;SDS011;64340;48.534;-3.036;2024-01-30T00:14:05;2.40;;;0.85;;
75718;SDS011;64340;48.534;-3.036;2024-01-30T00:16:31;1.77;;;0.80;;
75718;SDS011;64340;48.534;-3.036;2024-01-30T00:18:57;2.35;;;1.00;;
75718;SDS011;64340;48.534;-3.036;2024-01-30T00:21:23;1.85;;;0.63;;
75718;SDS011;64340;48.534;-3.036;2024-01-30T00:23:49;2.83;;;0.80;;
75718;SDS011;64340;48.534;-3.036;2024-01-30T00:26:14;2.78;;;1.00;;
75718;SDS011;64340;48.534;-3.036;2024-01-30T00:28:43;3.30;;;1.27;;
75718;SDS011;64340;48.534;-3.036;2024-01-30T00:31:09;2.72;;;0.90;;
75718;SDS011;64340;48.534;-3.036;2024-01-30T00:36:07;2.03;;;0.75;;
75718;SDS011;64340;48.534;-3.036;2024-01-30T00:38:34;2.15;;;0.60;;
75718;SDS011;64340;48.534;-3.036;2024-01-30T00:41:01;2.58;;;1.00;;
75718;SDS011;64340;48.534;-3.036;2024-01-30T00:43:30;3.90;;;1.02;;
75718;SDS011;64340;48.534;-3.036;2024-01-30T00:45:56;1.13;;;0.50;;
75718;SDS011;64340;48.534;-3.036;2024-01-30T00:48:23;1.45;;;0.60;;
75718;SDS011;64340;48.534;-3.036;2024-01-30T00:50:49;2.10;;;0.70;;
75718;SDS011;64340;48.534;-3.036;2024-01-30T00:53:14;1.65;;;0.70;;
75718;SDS011;64340;48.534;-3.036;2024-01-30T00:55:40;1.85;;;0.65;;
75718;SDS011;64340;48.534;-3.036;2024-01-30T00:58:06;2.88;;;0.80;;
75718;SDS011;64340;48.534;-3.036;2024-01-30T01:00:32;1.85;;;0.60;;
75718;SDS011;64340;48.534;-3.036;2024-01-30T01:02:58;1.75;;;0.70;;
75718;SDS011;64340;48.534;-3.036;2024-01-30T01:05:24;1.13;;;0.50;;
75718;SDS011;64340;48.534;-3.036;2024-01-30T01:07:51;1.77;;;0.47;;
75718;SDS011;64340;48.534;-3.036;2024-01-30T01:10:16;1.80;;;0.60;;
75718;SDS011;64340;48.534;-3.036;2024-01-30T01:12:43;1.08;;;0.60;;
75718;SDS011;64340;48.534;-3.036;2024-01-30T01:15:10;1.83;;;0.47;;
75718;SDS011;64340;48.534;-3.036;2024-01-30T01:17:36;1.67;;;0.50;;
75718;SDS011;64340;48.534;-3.036;2024-01-30T01:20:03;1.83;;;0.68;;
75718;SDS011;64340;48.534;-3.036;2024-01-30T01:22:33;1.58;;;0.93;;
75718;SDS011;64340;48.534;-3.036;2024-01-30T01:24:59;1.67;;;0.40;;
75718;SDS011;64340;48.534;-3.036;2024-01-30T01:27:25;2.22;;;0.80;;
75718;SDS011;64340;48.534;-3.036;2024-01-30T01:29:52;1.13;;;0.40;;
75718;SDS011;64340;48.534;-3.036;2024-01-30T01:32:18;1.65;;;0.50;;
75718;SDS011;64340;48.534;-3.036;2024-01-30T01:34:43;1.63;;;0.60;;
75718;SDS011;64340;48.534;-3.036;2024-01-30T01:37:09;1.98;;;0.57;;
75718;SDS011;64340;48.534;-3.036;2024-01-30T01:39:35;1.20;;;0.60;;
75718;SDS011;64340;48.534;-3.036;2024-01-30T01:42:01;0.75;;;0.43;;
75718;SDS011;64340;48.534;-3.036;2024-01-30T01:44:27;1.55;;;0.50;;
75718;SDS011;64340;48.534;-3.036;2024-01-30T01:46:54;2.03;;;0.60;;
75718;SDS011;64340;48.534;-3.036;2024-01-30T01:49:20;2.53;;;0.60;;
75718;SDS011;64340;48.534;-3.036;2024-01-30T01:51:49;1.92;;;0.70;;
75718;SDS011;64340;48.534;-3.036;2024-01-30T01:54:16;1.85;;;0.60;;
75718;SDS011;64340;48.534;-3.036;2024-01-30T01:56:43;1.80;;;0.50;;
75718;SDS011;64340;48.534;-3.036;2024-01-30T01:59:09;1.88;;;0.40;;
75718;SDS011;64340;48.534;-3.036;2024-01-30T02:01:36;1.20;;;0.50;;
75718;SDS011;64340;48.534;-3.036;2024-01-30T02:04:02;0.88;;;0.35;;
75718;SDS011;64340;48.534;-3.036;2024-01-30T02:06:28;1.45;;;0.65;;
75718;SDS011;64340;48.534;-3.036;2024-01-30T02:08:54;0.93;;;0.50;;
75718;SDS011;64340;48.534;-3.036;2024-01-30T02:11:20;1.88;;;0.38;;
75718;SDS011;64340;48.534;-3.036;2024-01-30T02:13:48;1.20;;;0.40;;
75718;SDS011;64340;48.534;-3.036;2024-01-30T02:16:14;1.90;;;0.40;;
75718;SDS011;64340;48.534;-3.036;2024-01-30T02:18:39;0.90;;;0.30;;
75718;SDS011;64340;48.534;-3.036;2024-01-30T02:21:12;0.90;;;0.30;;
75718;SDS011;64340;48.534;-3.036;2024-01-30T02:23:41;2.20;;;0.50;;
75718;SDS011;64340;48.534;-3.036;2024-01-30T02:26:09;2.15;;;0.50;;
75718;SDS011;64340;48.534;-3.036;2024-01-30T02:28:37;1.13;;;0.40;;
75718;SDS011;64340;48.534;-3.036;2024-01-30T02:31:03;1.45;;;0.40;;
75718;SDS011;64340;48.534;-3.036;2024-01-30T02:33:29;2.05;;;0.40;;
75718;SDS011;64340;48.534;-3.036;2024-01-30T02:35:55;0.55;;;0.30;;
75718;SDS011;64340;48.534;-3.036;2024-01-30T02:38:21;0.65;;;0.40;;
75718;SDS011;64340;48.534;-3.036;2024-01-30T02:40:48;1.50;;;0.40;;
75718;SDS011;64340;48.534;-3.036;2024-01-30T02:43:14;0.63;;;0.28;;
75718;SDS011;64340;48.534;-3.036;2024-01-30T02:45:41;1.33;;;0.25;;
75718;SDS011;64340;48.534;-3.036;2024-01-30T02:48:07;1.15;;;0.38;;
75718;SDS011;64340;48.534;-3.036;2024-01-30T02:50:33;1.00;;;0.28;;
75718;SDS011;64340;48.534;-3.036;2024-01-30T02:52:59;0.70;;;0.20;;
75718;SDS011;64340;48.534;-3.036;2024-01-30T02:55:24;0.82;;;0.40;;
75718;SDS011;64340;48.534;-3.036;2024-01-30T02:57:50;1.75;;;0.85;;
75718;SDS011;64340;48.534;-3.036;2024-01-30T03:00:16;1.13;;;0.40;;
75718;SDS011;64340;48.534;-3.036;2024-01-30T03:02:44;0.38;;;0.20;;
75718;SDS011;64340;48.534;-3.036;2024-01-30T03:05:10;0.43;;;0.20;;
75718;SDS011;64340;48.534;-3.036;2024-01-30T03:07:36;0.60;;;0.28;;
75718;SDS011;64340;48.534;-3.036;2024-01-30T03:10:02;0.77;;;0.32;;
75718;SDS011;64340;48.534;-3.036;2024-01-30T03:12:29;1.98;;;0.40;;
75718;SDS011;64340;48.534;-3.036;2024-01-30T03:14:55;0.85;;;0.25;;
75718;SDS011;64340;48.534;-3.036;2024-01-30T03:17:20;0.88;;;0.30;;
75718;SDS011;64340;48.534;-3.036;2024-01-30T03:19:46;0.85;;;0.30;;
75718;SDS011;64340;48.534;-3.036;2024-01-30T03:22:12;2.10;;;0.40;;
75718;SDS011;64340;48.534;-3.036;2024-01-30T03:24:38;1.23;;;0.30;;
75718;SDS011;64340;48.534;-3.036;2024-01-30T03:27:04;0.65;;;0.28;;
75718;SDS011;64340;48.534;-3.036;2024-01-30T03:29:29;0.95;;;0.30;;
75718;SDS011;64340;48.534;-3.036;2024-01-30T03:31:55;0.45;;;0.17;;
75718;SDS011;64340;48.534;-3.036;2024-01-30T03:34:21;0.82;;;0.30;;
75718;SDS011;64340;48.534;-3.036;2024-01-30T03:36:47;0.80;;;0.20;;
75718;SDS011;64340;48.534;-3.036;2024-01-30T03:39:12;1.05;;;0.30;;
75718;SDS011;64340;48.534;-3.036;2024-01-30T03:41:41;0.47;;;0.20;;
75718;SDS011;64340;48.534;-3.036;2024-01-30T03:44:09;0.70;;;0.20;;
75718;SDS011;64340;48.534;-3.036;2024-01-30T03:46:35;3.13;;;0.40;;
75718;SDS011;64340;48.534;-3.036;2024-01-30T03:49:01;0.38;;;0.10;;
75718;SDS011;64340;48.534;-3.036;2024-01-30T03:51:26;0.70;;;0.25;;
75718;SDS011;64340;48.534;-3.036;2024-01-30T03:53:52;1.08;;;0.20;;
75718;SDS011;64340;48.534;-3.036;2024-01-30T03:56:18;0.75;;;0.22;;
75718;SDS011;64340;48.534;-3.036;2024-01-30T03:58:44;1.55;;;0.30;;
75718;SDS011;64340;48.534;-3.036;2024-01-30T04:01:13;1.15;;;0.35;;
75718;SDS011;64340;48.534;-3.036;2024-01-30T04:03:40;0.50;;;0.20;;
75718;SDS011;64340;48.534;-3.036;2024-01-30T04:06:06;0.68;;;0.30;;
75718;SDS011;64340;48.534;-3.036;2024-01-30T04:08:32;0.45;;;0.20;;
75718;SDS011;64340;48.534;-3.036;2024-01-30T04:10:58;0.77;;;0.20;;
75718;SDS011;64340;48.534;-3.036;2024-01-30T04:13:23;1.88;;;0.30;;
75718;SDS011;64340;48.534;-3.036;2024-01-30T04:15:49;0.93;;;0.17;;
75718;SDS011;64340;48.534;-3.036;2024-01-30T04:18:15;0.63;;;0.22;;
75718;SDS011;64340;48.534;-3.036;2024-01-30T04:20:41;0.77;;;0.30;;
75718;SDS011;64340;48.534;-3.036;2024-01-30T04:23:07;1.83;;;0.20;;
75718;SDS011;64340;48.534;-3.036;2024-01-30T04:25:32;0.90;;;0.20;;
75718;SDS011;64340;48.534;-3.036;2024-01-30T04:27:58;0.55;;;0.22;;
75718;SDS011;64340;48.534;-3.036;2024-01-30T04:30:24;1.35;;;0.20;;
75718;SDS011;64340;48.534;-3.036;2024-01-30T04:32:50;1.30;;;0.20;;
75718;SDS011;64340;48.534;-3.036;2024-01-30T04:35:15;0.30;;;0.10;;
75718;SDS011;64340;48.534;-3.036;2024-01-30T04:37:41;0.20;;;0.10;;
75718;SDS011;64340;48.534;-3.036;2024-01-30T04:40:07;1.60;;;0.20;;
75718;SDS011;64340;48.534;-3.036;2024-01-30T04:42:34;0.35;;;0.10;;
75718;SDS011;64340;48.534;-3.036;2024-01-30T04:45:00;0.60;;;0.20;;
75718;SDS011;64340;48.534;-3.036;2024-01-30T04:47:26;0.70;;;0.30;;
75718;SDS011;64340;48.534;-3.036;2024-01-30T04:49:51;0.63;;;0.20;;
75718;SDS011;64340;48.534;-3.036;2024-01-30T04:52:17;1.20;;;0.20;;
75718;SDS011;64340;48.534;-3.036;2024-01-30T04:54:43;0.28;;;0.20;;
75718;SDS011;64340;48.534;-3.036;2024-01-30T04:57:09;0.50;;;0.20;;
75718;SDS011;64340;48.534;-3.036;2024-01-30T04:59:37;0.60;;;0.20;;
75718;SDS011;64340;48.534;-3.036;2024-01-30T05:02:03;1.13;;;0.30;;
75718;SDS011;64340;48.534;-3.036;2024-01-30T05:04:28;0.95;;;0.20;;
75718;SDS011;64340;48.534;-3.036;2024-01-30T05:06:54;1.00;;;0.20;;
75718;SDS011;64340;48.534;-3.036;2024-01-30T05:09:20;0.75;;;0.20;;
75718;SDS011;64340;48.534;-3.036;2024-01-30T05:11:46;0.70;;;0.20;;
75718;SDS011;64340;48.534;-3.036;2024-01-30T05:14:12;0.25;;;0.13;;
75718;SDS011;64340;48.534;-3.036;2024-01-30T05:16:40;0.75;;;0.20;;
75718;SDS011;64340;48.534;-3.036;2024-01-30T05:19:06;0.35;;;0.10;;
75718;SDS011;64340;48.534;-3.036;2024-01-30T05:21:32;0.93;;;0.20;;
75718;SDS011;64340;48.534;-3.036;2024-01-30T05:23:58;0.65;;;0.17;;
75718;SDS011;64340;48.534;-3.036;2024-01-30T05:26:23;0.10;;;0.00;;
75718;SDS011;64340;48.534;-3.036;2024-01-30T05:28:49;0.52;;;0.22;;
75718;SDS011;64340;48.534;-3.036;2024-01-30T05:31:15;0.98;;;0.13;;
75718;SDS011;64340;48.534;-3.036;2024-01-30T05:33:41;0.77;;;0.20;;
75718;SDS011;64340;48.534;-3.036;2024-01-30T05:36:06;0.93;;;0.40;;
75718;SDS011;64340;48.534;-3.036;2024-01-30T05:38:32;2.55;;;0.20;;
75718;SDS011;64340;48.534;-3.036;2024-01-30T05:40:58;1.80;;;0.30;;
75718;SDS011;64340;48.534;-3.036;2024-01-30T05:43:24;1.30;;;0.20;;
75718;SDS011;64340;48.534;-3.036;2024-01-30T05:45:50;3.00;;;0.80;;
75718;SDS011;64340;48.534;-3.036;2024-01-30T05:48:17;3.63;;;0.63;;
75718;SDS011;64340;48.534;-3.036;2024-01-30T05:50:42;6.38;;;1.50;;
75718;SDS011;64340;48.534;-3.036;2024-01-30T05:53:08;3.85;;;0.60;;
75718;SDS011;64340;48.534;-3.036;2024-01-30T05:55:34;2.55;;;0.60;;
75718;SDS011;64340;48.534;-3.036;2024-01-30T05:58:00;5.07;;;0.75;;
75718;SDS011;64340;48.534;-3.036;2024-01-30T06:00:25;3.53;;;0.73;;
75718;SDS011;64340;48.534;-3.036;2024-01-30T06:02:51;2.30;;;0.47;;
75718;SDS011;64340;48.534;-3.036;2024-01-30T06:05:17;3.53;;;0.52;;
75718;SDS011;64340;48.534;-3.036;2024-01-30T06:07:43;2.45;;;0.50;;
75718;SDS011;64340;48.534;-3.036;2024-01-30T06:10:09;3.15;;;0.70;;
75718;SDS011;64340;48.534;-3.036;2024-01-30T06:12:35;3.47;;;0.60;;
75718;SDS011;64340;48.534;-3.036;2024-01-30T06:15:01;3.00;;;0.50;;
75718;SDS011;64340;48.534;-3.036;2024-01-30T06:17:27;3.88;;;0.75;;
75718;SDS011;64340;48.534;-3.036;2024-01-30T06:19:53;3.25;;;0.77;;
75718;SDS011;64340;48.534;-3.036;2024-01-30T06:22:20;1.88;;;0.40;;
75718;SDS011;64340;48.534;-3.036;2024-01-30T06:24:46;3.83;;;0.70;;
75718;SDS011;64340;48.534;-3.036;2024-01-30T06:27:15;2.65;;;0.50;;
75718;SDS011;64340;48.534;-3.036;2024-01-30T06:29:40;1.55;;;0.57;;
75718;SDS011;64340;48.534;-3.036;2024-01-30T06:32:08;3.55;;;0.68;;
75718;SDS011;64340;48.534;-3.036;2024-01-30T06:34:34;3.55;;;0.85;;
75718;SDS011;64340;48.534;-3.036;2024-01-30T06:37:00;1.77;;;0.47;;
75718;SDS011;64340;48.534;-3.036;2024-01-30T06:39:26;3.47;;;0.70;;
75718;SDS011;64340;48.534;-3.036;2024-01-30T06:41:52;2.40;;;0.50;;
75718;SDS011;64340;48.534;-3.036;2024-01-30T06:44:18;2.60;;;0.70;;
75718;SDS011;64340;48.534;-3.036;2024-01-30T06:46:44;4.65;;;0.90;;
75718;SDS011;64340;48.534;-3.036;2024-01-30T06:49:09;2.22;;;0.65;;
75718;SDS011;64340;48.534;-3.036;2024-01-30T06:51:35;2.85;;;0.50;;
75718;SDS011;64340;48.534;-3.036;2024-01-30T06:54:01;1.60;;;0.40;;
75718;SDS011;64340;48.534;-3.036;2024-01-30T06:56:27;3.80;;;0.57;;
75718;SDS011;64340;48.534;-3.036;2024-01-30T06:58:53;3.80;;;0.65;;
75718;SDS011;64340;48.534;-3.036;2024-01-30T07:01:19;0.90;;;0.50;;
75718;SDS011;64340;48.534;-3.036;2024-01-30T07:03:46;1.85;;;0.60;;
75718;SDS011;64340;48.534;-3.036;2024-01-30T07:06:12;1.60;;;0.60;;
75718;SDS011;64340;48.534;-3.036;2024-01-30T07:08:37;3.67;;;0.52;;
75718;SDS011;64340;48.534;-3.036;2024-01-30T07:11:06;3.72;;;0.80;;
75718;SDS011;64340;48.534;-3.036;2024-01-30T07:13:32;1.90;;;0.70;;
75718;SDS011;64340;48.534;-3.036;2024-01-30T07:15:59;1.45;;;0.65;;
75718;SDS011;64340;48.534;-3.036;2024-01-30T07:18:25;1.52;;;0.57;;
75718;SDS011;64340;48.534;-3.036;2024-01-30T07:20:51;1.85;;;0.70;;
75718;SDS011;64340;48.534;-3.036;2024-01-30T07:23:16;1.60;;;0.65;;
75718;SDS011;64340;48.534;-3.036;2024-01-30T07:25:43;2.60;;;1.05;;
75718;SDS011;64340;48.534;-3.036;2024-01-30T07:28:09;1.63;;;0.47;;
75718;SDS011;64340;48.534;-3.036;2024-01-30T07:30:37;2.05;;;0.63;;
75718;SDS011;64340;48.534;-3.036;2024-01-30T07:33:03;2.22;;;0.55;;
75718;SDS011;64340;48.534;-3.036;2024-01-30T07:35:28;1.10;;;0.45;;
75718;SDS011;64340;48.534;-3.036;2024-01-30T07:37:54;1.95;;;0.60;;
75718;SDS011;64340;48.534;-3.036;2024-01-30T07:40:21;1.30;;;0.40;;
75718;SDS011;64340;48.534;-3.036;2024-01-30T07:42:50;2.50;;;0.50;;
75718;SDS011;64340;48.534;-3.036;2024-01-30T07:45:18;1.15;;;0.45;;
75718;SDS011;64340;48.534;-3.036;2024-01-30T07:47:48;1.50;;;0.45;;
75718;SDS011;64340;48.534;-3.036;2024-01-30T07:50:14;0.95;;;0.43;;
75718;SDS011;64340;48.534;-3.036;2024-01-30T07:52:40;1.83;;;0.50;;
75718;SDS011;64340;48.534;-3.036;2024-01-30T07:58:11;1.75;;;0.57;;
75718;SDS011;64340;48.534;-3.036;2024-01-30T08:00:37;2.40;;;0.63;;
75718;SDS011;64340;48.534;-3.036;2024-01-30T08:03:04;1.33;;;0.60;;
75718;SDS011;64340;48.534;-3.036;2024-01-30T08:05:30;2.05;;;0.45;;
75718;SDS011;64340;48.534;-3.036;2024-01-30T08:07:56;1.67;;;0.40;;
75718;SDS011;64340;48.534;-3.036;2024-01-30T08:10:21;1.52;;;0.40;;
75718;SDS011;64340;48.534;-3.036;2024-01-30T08:12:47;2.95;;;0.60;;
75718;SDS011;64340;48.534;-3.036;2024-01-30T08:15:13;2.22;;;0.40;;
75718;SDS011;64340;48.534;-3.036;2024-01-30T08:17:39;1.52;;;0.40;;
75718;SDS011;64340;48.534;-3.036;2024-01-30T08:20:05;1.23;;;0.40;;
75718;SDS011;64340;48.534;-3.036;2024-01-30T08:22:33;1.95;;;0.50;;
75718;SDS011;64340;48.534;-3.036;2024-01-30T08:24:59;1.08;;;0.50;;
75718;SDS011;64340;48.534;-3.036;2024-01-30T08:27:24;2.47;;;0.55;;
75718;SDS011;64340;48.534;-3.036;2024-01-30T08:29:50;1.88;;;0.40;;
75718;SDS011;64340;48.534;-3.036;2024-01-30T08:32:16;2.10;;;0.52;;
75718;SDS011;64340;48.534;-3.036;2024-01-30T08:34:42;1.58;;;0.45;;
75718;SDS011;64340;48.534;-3.036;2024-01-30T08:37:07;1.67;;;0.55;;
75718;SDS011;64340;48.534;-3.036;2024-01-30T08:39:33;1.20;;;0.45;;
75718;SDS011;64340;48.534;-3.036;2024-01-30T08:41:59;1.58;;;0.52;;
75718;SDS011;64340;48.534;-3.036;2024-01-30T08:44:25;1.02;;;0.50;;
75718;SDS011;64340;48.534;-3.036;2024-01-30T08:46:51;2.30;;;0.50;;
75718;SDS011;64340;48.534;-3.036;2024-01-30T08:49:16;1.90;;;0.47;;
75718;SDS011;64340;48.534;-3.036;2024-01-30T08:51:42;1.17;;;0.50;;
75718;SDS011;64340;48.534;-3.036;2024-01-30T08:54:08;1.00;;;0.40;;
75718;SDS011;64340;48.534;-3.036;2024-01-30T08:56:34;1.65;;;0.40;;
75718;SDS011;64340;48.534;-3.036;2024-01-30T08:58:59;0.93;;;0.40;;
75718;SDS011;64340;48.534;-3.036;2024-01-30T09:01:25;1.48;;;0.40;;
75718;SDS011;64340;48.534;-3.036;2024-01-30T09:03:51;1.48;;;0.55;;
75718;SDS011;64340;48.534;-3.036;2024-01-30T09:06:17;1.52;;;0.60;;
75718;SDS011;64340;48.534;-3.036;2024-01-30T09:08:43;1.40;;;0.40;;
75718;SDS011;64340;48.534;-3.036;2024-01-30T09:11:09;0.80;;;0.30;;
75718;SDS011;64340;48.534;-3.036;2024-01-30T09:13:37;0.93;;;0.40;;
75718;SDS011;64340;48.534;-3.036;2024-01-30T09:16:03;0.82;;;0.35;;
75718;SDS011;64340;48.534;-3.036;2024-01-30T09:18:29;1.40;;;0.40;;
75718;SDS011;64340;48.534;-3.036;2024-01-30T09:20:55;1.48;;;0.40;;
75718;SDS011;64340;48.534;-3.036;2024-01-30T09:23:21;0.65;;;0.20;;
75718;SDS011;64340;48.534;-3.036;2024-01-30T09:25:47;0.93;;;0.38;;
75718;SDS011;64340;48.534;-3.036;2024-01-30T09:28:12;1.10;;;0.55;;
75718;SDS011;64340;48.534;-3.036;2024-01-30T09:30:38;1.10;;;0.47;;
75718;SDS011;64340;48.534;-3.036;2024-01-30T09:33:04;1.40;;;0.40;;
75718;SDS011;64340;48.534;-3.036;2024-01-30T09:35:31;1.63;;;0.50;;
75718;SDS011;64340;48.534;-3.036;2024-01-30T09:37:57;1.35;;;0.40;;
75718;SDS011;64340;48.534;-3.036;2024-01-30T09:40:23;1.42;;;0.45;;
75718;SDS011;64340;48.534;-3.036;2024-01-30T09:42:50;0.98;;;0.40;;
75718;SDS011;64340;48.534;-3.036;2024-01-30T09:45:18;2.97;;;0.32;;
75718;SDS011;64340;48.534;-3.036;2024-01-30T09:47:45;2.50;;;0.40;;
75718;SDS011;64340;48.534;-3.036;2024-01-30T09:50:12;1.40;;;0.40;;
75718;SDS011;64340;48.534;-3.036;2024-01-30T09:52:39;1.33;;;0.38;;
75718;SDS011;64340;48.534;-3.036;2024-01-30T09:55:05;0.88;;;0.40;;
75718;SDS011;64340;48.534;-3.036;2024-01-30T09:57:32;1.30;;;0.50;;
75718;SDS011;64340;48.534;-3.036;2024-01-30T09:59:58;1.25;;;0.43;;
75718;SDS011;64340;48.534;-3.036;2024-01-30T10:02:24;1.48;;;0.60;;
75718;SDS011;64340;48.534;-3.036;2024-01-30T10:04:51;1.10;;;0.30;;
75718;SDS011;64340;48.534;-3.036;2024-01-30T10:07:17;2.33;;;0.50;;
75718;SDS011;64340;48.534;-3.036;2024-01-30T10:09:44;1.63;;;0.35;;
75718;SDS011;64340;48.534;-3.036;2024-01-30T10:12:10;1.63;;;0.55;;
75718;SDS011;64340;48.534;-3.036;2024-01-30T10:14:39;1.58;;;0.35;;
75718;SDS011;64340;48.534;-3.036;2024-01-30T10:17:07;1.52;;;0.30;;
75718;SDS011;64340;48.534;-3.036;2024-01-30T10:19:37;2.30;;;0.40;;
75718;SDS011;64340;48.534;-3.036;2024-01-30T10:22:04;1.13;;;0.50;;
75718;SDS011;64340;48.534;-3.036;2024-01-30T10:24:30;0.70;;;0.30;;
75718;SDS011;64340;48.534;-3.036;2024-01-30T10:26:58;1.50;;;0.60;;
75718;SDS011;64340;48.534;-3.036;2024-01-30T10:29:24;1.67;;;0.50;;
75718;SDS011;64340;48.534;-3.036;2024-01-30T10:31:59;1.70;;;0.43;;
75718;SDS011;64340;48.534;-3.036;2024-01-30T10:34:26;2.30;;;0.60;;
75718;SDS011;64340;48.534;-3.036;2024-01-30T10:36:55;1.50;;;0.35;;
75718;SDS011;64340;48.534;-3.036;2024-01-30T10:39:25;1.27;;;0.50;;
75718;SDS011;64340;48.534;-3.036;2024-01-30T10:41:54;1.98;;;0.60;;
75718;SDS011;64340;48.534;-3.036;2024-01-30T10:44:26;1.23;;;0.63;;
75718;SDS011;64340;48.534;-3.036;2024-01-30T10:46:56;1.60;;;0.60;;
75718;SDS011;64340;48.534;-3.036;2024-01-30T10:49:28;1.85;;;0.40;;
75718;SDS011;64340;48.534;-3.036;2024-01-30T10:51:54;1.20;;;0.47;;
75718;SDS011;64340;48.534;-3.036;2024-01-30T10:54:21;0.82;;;0.30;;
75718;SDS011;64340;48.534;-3.036;2024-01-30T10:56:50;1.38;;;0.40;;
75718;SDS011;64340;48.534;-3.036;2024-01-30T11:01:46;1.95;;;0.43;;
75718;SDS011;64340;48.534;-3.036;2024-01-30T11:04:12;1.20;;;0.43;;
75718;SDS011;64340;48.534;-3.036;2024-01-30T11:06:41;1.08;;;0.50;;
75718;SDS011;64340;48.534;-3.036;2024-01-30T11:09:11;2.28;;;0.55;;
75718;SDS011;64340;48.534;-3.036;2024-01-30T11:11:56;1.70;;;0.60;;
75718;SDS011;64340;48.534;-3.036;2024-01-30T11:14:26;2.38;;;0.60;;
75718;SDS011;64340;48.534;-3.036;2024-01-30T11:16:58;1.17;;;0.40;;
75718;SDS011;64340;48.534;-3.036;2024-01-30T11:19:25;0.75;;;0.30;;
75718;SDS011;64340;48.534;-3.036;2024-01-30T11:21:52;1.05;;;0.22;;
75718;SDS011;64340;48.534;-3.036;2024-01-30T11:24:21;1.63;;;0.45;;
75718;SDS011;64340;48.534;-3.036;2024-01-30T11:26:55;1.80;;;0.60;;
75718;SDS011;64340;48.534;-3.036;2024-01-30T11:29:24;1.05;;;0.30;;
75718;SDS011;64340;48.534;-3.036;2024-01-30T11:31:51;1.92;;;0.30;;
75718;SDS011;64340;48.534;-3.036;2024-01-30T11:34:21;2.47;;;0.73;;
75718;SDS011;64340;48.534;-3.036;2024-01-30T11:36:52;0.73;;;0.30;;
75718;SDS011;64340;48.534;-3.036;2024-01-30T11:39:24;0.70;;;0.30;;
75718;SDS011;64340;48.534;-3.036;2024-01-30T11:41:54;0.90;;;0.40;;
75718;SDS011;64340;48.534;-3.036;2024-01-30T11:44:20;0.70;;;0.40;;
75718;SDS011;64340;48.534;-3.036;2024-01-30T11:46:47;2.15;;;0.50;;
75718;SDS011;64340;48.534;-3.036;2024-01-30T11:49:14;0.60;;;0.30;;
75718;SDS011;64340;48.534;-3.036;2024-01-30T11:51:40;0.75;;;0.20;;
75718;SDS011;64340;48.534;-3.036;2024-01-30T11:54:07;1.75;;;0.50;;
75718;SDS011;64340;48.534;-3.036;2024-01-30T11:56:33;1.35;;;0.28;;
75718;SDS011;64340;48.534;-3.036;2024-01-30T11:58:58;1.58;;;0.30;;
75718;SDS011;64340;48.534;-3.036;2024-01-30T12:01:25;1.13;;;0.30;;
75718;SDS011;64340;48.534;-3.036;2024-01-30T12:03:52;0.77;;;0.20;;
75718;SDS011;64340;48.534;-3.036;2024-01-30T12:06:18;1.15;;;0.30;;
75718;SDS011;64340;48.534;-3.036;2024-01-30T12:08:55;0.75;;;0.40;;
75718;SDS011;64340;48.534;-3.036;2024-01-30T12:11:26;1.33;;;0.30;;
75718;SDS011;64340;48.534;-3.036;2024-01-30T12:13:55;2.28;;;0.38;;
75718;SDS011;64340;48.534;-3.036;2024-01-30T12:16:21;0.93;;;0.30;;
75718;SDS011;64340;48.534;-3.036;2024-01-30T12:18:47;1.27;;;0.50;;
75718;SDS011;64340;48.534;-3.036;2024-01-30T12:21:16;1.40;;;0.40;;
75718;SDS011;64340;48.534;-3.036;2024-01-30T12:23:42;1.10;;;0.30;;
75718;SDS011;64340;48.534;-3.036;2024-01-30T12:26:09;0.68;;;0.30;;
75718;SDS011;64340;48.534;-3.036;2024-01-30T12:28:35;0.93;;;0.22;;
75718;SDS011;64340;48.534;-3.036;2024-01-30T12:31:04;1.40;;;0.32;;
75718;SDS011;64340;48.534;-3.036;2024-01-30T12:33:30;1.00;;;0.50;;
75718;SDS011;64340;48.534;-3.036;2024-01-30T12:35:57;0.93;;;0.35;;
75718;SDS011;64340;48.534;-3.036;2024-01-30T12:38:26;1.00;;;0.30;;
75718;SDS011;64340;48.534;-3.036;2024-01-30T12:40:55;0.93;;;0.30;;
75718;SDS011;64340;48.534;-3.036;2024-01-30T12:43:22;1.65;;;0.30;;
75718;SDS011;64340;48.534;-3.036;2024-01-30T12:45:49;1.02;;;0.22;;
75718;SDS011;64340;48.534;-3.036;2024-01-30T12:48:15;0.65;;;0.28;;
75718;SDS011;64340;48.534;-3.036;2024-01-30T12:50:41;0.77;;;0.25;;
75718;SDS011;64340;48.534;-3.036;2024-01-30T12:53:07;1.25;;;0.30;;
75718;SDS011;64340;48.534;-3.036;2024-01-30T12:55:34;1.85;;;0.32;;
75718;SDS011;64340;48.534;-3.036;2024-01-30T12:58:00;0.63;;;0.30;;
75718;SDS011;64340;48.534;-3.036;2024-01-30T13:00:26;1.65;;;0.95;;
75718;SDS011;64340;48.534;-3.036;2024-01-30T13:02:52;0.75;;;0.30;;
75718;SDS011;64340;48.534;-3.036;2024-01-30T13:05:18;1.33;;;0.63;;
75718;SDS011;64340;48.534;-3.036;2024-01-30T13:07:44;0.93;;;0.70;;
75718;SDS011;64340;48.534;-3.036;2024-01-30T13:10:09;1.25;;;0.30;;
75718;SDS011;64340;48.534;-3.036;2024-01-30T13:12:35;1.58;;;0.30;;
75718;SDS011;64340;48.534;-3.036;2024-01-30T13:15:03;1.48;;;0.30;;
75718;SDS011;64340;48.534;-3.036;2024-01-30T13:17:30;0.98;;;0.75;;
75718;SDS011;64340;48.534;-3.036;2024-01-30T13:19:56;2.33;;;0.40;;
75718;SDS011;64340;48.534;-3.036;2024-01-30T13:22:23;0.43;;;0.10;;
75718;SDS011;64340;48.534;-3.036;2024-01-30T13:24:49;1.23;;;0.20;;
75718;SDS011;64340;48.534;-3.036;2024-01-30T13:27:15;1.48;;;0.30;;
75718;SDS011;64340;48.534;-3.036;2024-01-30T13:29:41;3.92;;;0.90;;
75718;SDS011;64340;48.534;-3.036;2024-01-30T13:32:06;1.23;;;0.30;;
75718;SDS011;64340;48.534;-3.036;2024-01-30T13:34:32;2.50;;;0.40;;
75718;SDS011;64340;48.534;-3.036;2024-01-30T13:36:58;1.17;;;0.30;;
75718;SDS011;64340;48.534;-3.036;2024-01-30T13:39:24;1.40;;;0.28;;
75718;SDS011;64340;48.534;-3.036;2024-01-30T13:41:49;0.80;;;0.22;;
75718;SDS011;64340;48.534;-3.036;2024-01-30T13:44:15;0.70;;;0.30;;
75718;SDS011;64340;48.534;-3.036;2024-01-30T13:46:42;2.08;;;0.38;;
75718;SDS011;64340;48.534;-3.036;2024-01-30T13:49:08;1.73;;;0.30;;
75718;SDS011;64340;48.534;-3.036;2024-01-30T13:51:34;2.03;;;0.50;;
75718;SDS011;64340;48.534;-3.036;2024-01-30T13:54:00;2.85;;;0.38;;
75718;SDS011;64340;48.534;-3.036;2024-01-30T13:56:26;3.15;;;0.43;;
75718;SDS011;64340;48.534;-3.036;2024-01-30T13:58:52;1.92;;;0.40;;
75718;SDS011;64340;48.534;-3.036;2024-01-30T14:01:18;1.80;;;0.45;;
75718;SDS011;64340;48.534;-3.036;2024-01-30T14:03:44;2.10;;;0.43;;
75718;SDS011;64340;48.534;-3.036;2024-01-30T14:06:10;1.45;;;0.38;;
75718;SDS011;64340;48.534;-3.036;2024-01-30T14:08:37;2.63;;;0.47;;
75718;SDS011;64340;48.534;-3.036;2024-01-30T14:11:02;2.45;;;0.82;;
75718;SDS011;64340;48.534;-3.036;2024-01-30T14:13:28;4.65;;;2.35;;
75718;SDS011;64340;48.534;-3.036;2024-01-30T14:15:55;3.53;;;1.40;;
75718;SDS011;64340;48.534;-3.036;2024-01-30T14:18:21;4.13;;;1.45;;
75718;SDS011;64340;48.534;-3.036;2024-01-30T14:20:47;2.75;;;1.10;;
75718;SDS011;64340;48.534;-3.036;2024-01-30T14:23:13;3.10;;;1.00;;
75718;SDS011;64340;48.534;-3.036;2024-01-30T14:25:43;3.78;;;1.10;;
75718;SDS011;64340;48.534;-3.036;2024-01-30T14:28:09;3.38;;;0.80;;
75718;SDS011;64340;48.534;-3.036;2024-01-30T14:30:35;1.95;;;0.80;;
75718;SDS011;64340;48.534;-3.036;2024-01-30T14:33:01;2.92;;;0.98;;
75718;SDS011;64340;48.534;-3.036;2024-01-30T14:35:27;3.90;;;0.70;;
75718;SDS011;64340;48.534;-3.036;2024-01-30T14:37:53;2.10;;;0.60;;